Time;durP1;ratioP1;P1;durP2;ratioP2;P2;SDS_P1;SDS_P2;PMS_P1;PMS_P2;Temp;Humidity;BMP_temperature;BMP_pressure;BME280_temperature;BME280_humidity;BME280_pressure;Samples;Min_cycle;Max_cycle;Signal;HPM_P1;HPM_P2
2023/10/22 00:02:11;;;;;;;6.15;1.45;;;12.30;99.90;;;;;;4795831;29;20039;-57
2023/10/22 00:04:40;;;;;;;4.63;1.38;;;12.30;99.90;;;;;;4794496;30;20078;-57
2023/10/22 00:07:06;;;;;;;8.98;1.30;;;12.30;99.90;;;;;;4794779;30;20085;-58
2023/10/22 00:09:32;;;;;;;5.93;1.42;;;12.30;99.90;;;;;;4795574;29;20048;-58
2023/10/22 00:11:58;;;;;;;8.18;1.60;;;12.40;99.90;;;;;;4795795;29;20089;-57
2023/10/22 00:14:23;;;;;;;10.13;1.48;;;12.30;99.90;;;;;;4795663;29;20048;-58
2023/10/22 00:16:49;;;;;;;5.20;1.25;;;12.40;99.90;;;;;;4795898;29;20200;-58
2023/10/22 00:19:15;;;;;;;8.52;1.70;;;12.40;99.90;;;;;;4795415;29;20062;-57
2023/10/22 00:21:40;;;;;;;5.78;1.30;;;12.40;99.90;;;;;;4795574;29;20087;-57
2023/10/22 00:24:07;;;;;;;7.43;1.60;;;12.40;99.90;;;;;;4795837;29;20104;-57
2023/10/22 00:26:32;;;;;;;6.18;1.13;;;12.40;99.90;;;;;;4794728;29;20036;-57
2023/10/22 00:28:58;;;;;;;8.35;1.30;;;12.40;99.90;;;;;;4795519;29;20077;-58
2023/10/22 00:31:23;;;;;;;9.07;1.40;;;12.40;99.90;;;;;;4795210;29;20069;-58
2023/10/22 00:33:49;;;;;;;6.53;1.20;;;12.40;99.90;;;;;;4795698;29;20054;-57
2023/10/22 00:36:15;;;;;;;7.38;1.63;;;12.40;99.90;;;;;;4794959;29;20106;-58
2023/10/22 00:38:40;;;;;;;5.53;1.38;;;12.50;99.90;;;;;;4794232;30;20059;-57
2023/10/22 00:41:06;;;;;;;6.35;1.38;;;12.50;99.90;;;;;;4793616;30;20444;-57
2023/10/22 00:43:32;;;;;;;5.30;1.35;;;12.50;99.90;;;;;;4795149;29;20054;-57
2023/10/22 00:45:58;;;;;;;9.27;2.72;;;12.50;99.90;;;;;;4795364;29;20438;-57
2023/10/22 00:48:28;;;;;;;7.53;1.27;;;12.50;99.90;;;;;;4795041;29;20058;-57
2023/10/22 00:50:55;;;;;;;5.90;1.30;;;12.50;99.90;;;;;;4793953;30;20051;-57
2023/10/22 00:53:21;;;;;;;5.10;1.52;;;12.50;99.90;;;;;;4794610;29;20047;-57
2023/10/22 00:55:47;;;;;;;9.25;1.60;;;12.60;99.90;;;;;;4794402;29;20138;-57
2023/10/22 00:58:16;;;;;;;6.60;1.40;;;12.60;99.90;;;;;;4795097;29;20080;-57
2023/10/22 01:00:42;;;;;;;6.47;1.30;;;12.60;99.90;;;;;;4794773;29;20051;-55
2023/10/22 01:03:08;;;;;;;5.53;1.50;;;12.50;99.90;;;;;;4795218;29;20063;-57
2023/10/22 01:05:37;;;;;;;6.90;1.30;;;12.60;99.90;;;;;;4794324;29;20047;-57
2023/10/22 01:08:06;;;;;;;7.57;1.38;;;12.50;99.90;;;;;;4794821;29;20047;-56
2023/10/22 01:10:32;;;;;;;3.90;1.05;;;12.50;99.90;;;;;;4794258;29;20096;-57
2023/10/22 01:12:59;;;;;;;6.85;1.40;;;12.50;99.90;;;;;;4795129;29;20058;-57
2023/10/22 01:15:25;;;;;;;5.10;1.00;;;12.50;99.90;;;;;;4794955;29;20040;-57
2023/10/22 01:17:50;;;;;;;6.70;1.27;;;12.60;99.90;;;;;;4794285;29;20107;-57
2023/10/22 01:20:16;;;;;;;4.88;1.08;;;12.60;99.90;;;;;;4794754;29;20055;-57
2023/10/22 01:22:42;;;;;;;4.72;0.95;;;12.50;99.90;;;;;;4794281;29;20110;-57
2023/10/22 01:25:08;;;;;;;7.43;1.55;;;12.60;99.90;;;;;;4794538;29;20082;-57
2023/10/22 01:27:34;;;;;;;4.05;1.33;;;12.50;99.90;;;;;;4777940;30;20048;-57
2023/10/22 01:30:00;;;;;;;7.88;1.33;;;12.60;99.90;;;;;;4794990;29;20047;-57
2023/10/22 01:32:30;;;;;;;3.30;0.90;;;12.50;99.90;;;;;;4793125;30;20535;-57
2023/10/22 01:34:57;;;;;;;4.50;1.13;;;12.60;99.90;;;;;;4794324;29;20059;-57
2023/10/22 01:37:23;;;;;;;5.95;1.25;;;12.50;99.90;;;;;;4794045;29;20063;-57
2023/10/22 01:39:49;;;;;;;6.43;1.08;;;12.40;99.90;;;;;;4794305;29;20051;-57
2023/10/22 01:42:15;;;;;;;8.48;1.10;;;12.40;99.90;;;;;;4794416;29;20486;-57
2023/10/22 01:44:41;;;;;;;6.40;1.20;;;12.40;99.90;;;;;;4794104;29;20473;-56
2023/10/22 01:47:07;;;;;;;4.38;1.00;;;12.30;99.90;;;;;;4794403;29;20055;-57
2023/10/22 01:49:32;;;;;;;5.35;1.10;;;12.30;99.90;;;;;;4792876;30;20138;-57
2023/10/22 01:51:58;;;;;;;6.05;0.93;;;12.30;99.90;;;;;;4793738;29;20403;-57
2023/10/22 01:54:24;;;;;;;4.78;1.10;;;12.20;99.90;;;;;;4794216;29;20051;-57
2023/10/22 01:56:49;;;;;;;3.85;0.90;;;12.20;99.90;;;;;;4793449;29;20152;-57
2023/10/22 01:59:15;;;;;;;4.85;1.02;;;12.20;99.90;;;;;;4794260;29;20089;-57
2023/10/22 02:01:42;;;;;;;6.60;1.10;;;12.10;99.90;;;;;;4792182;30;20675;-57
2023/10/22 02:04:08;;;;;;;5.95;1.10;;;12.10;99.90;;;;;;4793115;30;20063;-57
2023/10/22 02:06:34;;;;;;;5.10;1.00;;;12.10;99.90;;;;;;4793539;29;20055;-56
2023/10/22 02:09:00;;;;;;;6.88;1.65;;;12.00;99.90;;;;;;4793174;29;20058;-57
2023/10/22 02:11:27;;;;;;;6.18;1.30;;;11.90;99.90;;;;;;4793905;29;20048;-57
2023/10/22 02:13:53;;;;;;;6.43;0.95;;;11.90;99.90;;;;;;4793770;29;20062;-57
2023/10/22 02:16:19;;;;;;;6.25;1.27;;;11.80;99.90;;;;;;4793750;29;20433;-57
2023/10/22 02:18:45;;;;;;;6.00;1.05;;;11.70;99.90;;;;;;4791464;30;20134;-57
2023/10/22 02:21:11;;;;;;;8.32;1.55;;;11.70;99.90;;;;;;4793692;29;20047;-58
2023/10/22 02:23:39;;;;;;;5.10;1.40;;;11.70;99.90;;;;;;4793300;29;20055;-58
2023/10/22 02:26:05;;;;;;;3.45;1.20;;;11.60;99.90;;;;;;4793442;29;20058;-58
2023/10/22 02:28:32;;;;;;;7.53;1.58;;;11.60;99.90;;;;;;4793819;29;20043;-58
2023/10/22 02:30:58;;;;;;;4.35;1.25;;;11.60;99.90;;;;;;4793390;29;20059;-58
2023/10/22 02:33:24;;;;;;;10.10;1.98;;;11.60;99.90;;;;;;4793248;29;20047;-58
2023/10/22 02:35:51;;;;;;;5.95;1.60;;;11.60;99.90;;;;;;4793190;29;20043;-59
2023/10/22 02:38:17;;;;;;;6.53;1.98;;;11.60;99.90;;;;;;4792024;29;20114;-58
2023/10/22 02:40:48;;;;;;;5.10;1.85;;;11.50;99.90;;;;;;4793373;29;20062;-58
2023/10/22 02:43:14;;;;;;;5.40;1.80;;;11.40;99.90;;;;;;4793585;29;20056;-58
2023/10/22 02:45:51;;;;;;;6.15;1.67;;;11.40;99.90;;;;;;4793390;29;20077;-58
2023/10/22 02:48:16;;;;;;;8.00;2.05;;;11.40;99.90;;;;;;4793155;29;20114;-58
2023/10/22 02:50:42;;;;;;;7.72;1.80;;;11.40;99.90;;;;;;4793241;29;20079;-58
2023/10/22 02:53:08;;;;;;;7.45;1.70;;;11.40;99.90;;;;;;4792961;29;20078;-58
2023/10/22 02:55:34;;;;;;;5.03;1.35;;;11.40;99.90;;;;;;4793440;29;20046;-59
2023/10/22 02:58:00;;;;;;;7.50;1.90;;;11.40;99.90;;;;;;4791761;30;20048;-58
2023/10/22 03:00:26;;;;;;;6.22;1.63;;;11.40;99.90;;;;;;4792856;29;20047;-59
2023/10/22 03:02:52;;;;;;;6.50;1.60;;;11.40;99.90;;;;;;4792809;29;20350;-59
2023/10/22 03:05:17;;;;;;;5.68;1.60;;;11.50;99.90;;;;;;4793239;29;20059;-59
2023/10/22 03:07:43;;;;;;;5.63;1.60;;;11.50;99.90;;;;;;4793080;29;20047;-59
2023/10/22 03:10:09;;;;;;;4.32;1.50;;;11.30;99.90;;;;;;4792606;29;20416;-59
2023/10/22 03:12:35;;;;;;;5.60;1.63;;;11.40;99.90;;;;;;4791936;30;20064;-59
2023/10/22 03:15:01;;;;;;;5.65;1.92;;;11.50;99.90;;;;;;4793142;29;20055;-58
2023/10/22 03:17:27;;;;;;;6.82;2.78;;;11.50;99.90;;;;;;4792994;29;20489;-58
2023/10/22 03:19:53;;;;;;;7.75;2.22;;;11.50;99.90;;;;;;4793955;29;20051;-58
2023/10/22 03:22:19;;;;;;;7.28;2.20;;;11.50;99.90;;;;;;4796183;29;20562;-58
2023/10/22 03:24:51;;;;;;;4.97;1.92;;;11.40;99.90;;;;;;4796246;29;20533;-59
2023/10/22 03:27:17;;;;;;;;;;;11.50;99.90;;;;;;4796702;29;20059;-60
2023/10/22 03:29:46;;;;;;;5.25;2.17;;;11.50;99.90;;;;;;4796347;29;19925;-60
2023/10/22 03:32:12;;;;;;;6.43;2.00;;;11.60;99.90;;;;;;4796238;29;20107;-59
2023/10/22 03:34:38;;;;;;;5.85;2.03;;;11.50;99.90;;;;;;4796532;29;20055;-60
2023/10/22 03:37:08;;;;;;;6.15;2.30;;;11.40;99.90;;;;;;4796172;29;20070;-59
2023/10/22 03:39:36;;;;;;;5.15;2.05;;;11.50;99.90;;;;;;4796157;29;20051;-59
2023/10/22 03:42:02;;;;;;;6.55;2.08;;;11.50;99.90;;;;;;4796474;29;20171;-59
2023/10/22 03:44:29;;;;;;;4.78;2.28;;;11.40;99.90;;;;;;4795817;29;20173;-59
2023/10/22 03:46:55;;;;;;;6.10;2.60;;;11.30;99.90;;;;;;4796792;29;20146;-59
2023/10/22 03:49:20;;;;;;;7.93;2.45;;;11.50;99.90;;;;;;4795908;29;20057;-59
2023/10/22 03:51:46;;;;;;;5.07;2.20;;;11.40;99.90;;;;;;4796045;29;20079;-59
2023/10/22 03:54:12;;;;;;;5.53;2.20;;;11.40;99.90;;;;;;4796314;29;20107;-59
2023/10/22 03:56:37;;;;;;;5.72;2.20;;;11.50;99.90;;;;;;4795579;29;20054;-58
2023/10/22 03:59:03;;;;;;;6.03;2.30;;;11.60;99.90;;;;;;4794684;30;20282;-58
2023/10/22 04:01:29;;;;;;;6.03;2.13;;;11.60;99.90;;;;;;4795902;29;20062;-59
2023/10/22 04:03:54;;;;;;;6.20;2.08;;;11.40;99.90;;;;;;4796386;29;20066;-59
2023/10/22 04:06:20;;;;;;;7.20;2.00;;;11.50;99.90;;;;;;4795845;29;20456;-58
2023/10/22 04:08:46;;;;;;;5.97;2.10;;;11.50;99.90;;;;;;4796127;29;20047;-60
2023/10/22 04:11:11;;;;;;;6.50;2.33;;;11.60;99.90;;;;;;4796092;29;20047;-60
2023/10/22 04:13:37;;;;;;;5.22;1.77;;;11.40;99.90;;;;;;4795421;29;20051;-60
2023/10/22 04:16:03;;;;;;;5.18;1.92;;;11.40;99.90;;;;;;4795803;29;20453;-60
2023/10/22 04:18:29;;;;;;;5.60;1.92;;;11.30;99.90;;;;;;4795276;29;20126;-60
2023/10/22 04:20:54;;;;;;;4.90;1.70;;;11.40;99.90;;;;;;4795877;29;20039;-60
2023/10/22 04:23:20;;;;;;;5.03;1.60;;;11.40;99.90;;;;;;4795453;29;20062;-59
2023/10/22 04:25:46;;;;;;;11.45;3.53;;;11.40;99.90;;;;;;4795425;29;20094;-59
2023/10/22 04:28:13;;;;;;;5.28;1.90;;;11.50;99.90;;;;;;4795478;29;20383;-59
2023/10/22 04:30:40;;;;;;;5.03;1.70;;;11.60;99.90;;;;;;4794507;29;20055;-59
2023/10/22 04:33:07;;;;;;;3.58;1.60;;;11.40;99.90;;;;;;4794415;30;20558;-58
2023/10/22 04:35:34;;;;;;;6.20;1.55;;;11.40;99.90;;;;;;4795316;29;20090;-58
2023/10/22 04:38:00;;;;;;;2.78;1.23;;;11.60;99.90;;;;;;4795394;29;20055;-59
2023/10/22 04:40:32;;;;;;;3.38;1.13;;;11.40;99.90;;;;;;4794828;29;20074;-58
2023/10/22 04:42:57;;;;;;;4.88;1.52;;;11.40;99.90;;;;;;4794399;30;20066;-58
2023/10/22 04:45:23;;;;;;;5.47;1.40;;;11.70;99.90;;;;;;4795563;29;20055;-59
2023/10/22 04:47:49;;;;;;;3.80;1.42;;;11.70;99.90;;;;;;4795144;29;20207;-59
2023/10/22 04:50:15;;;;;;;2.72;1.30;;;11.50;99.90;;;;;;4795273;29;20052;-60
2023/10/22 04:52:41;;;;;;;4.72;1.40;;;11.50;99.90;;;;;;4795004;29;20057;-58
2023/10/22 04:55:11;;;;;;;3.67;1.52;;;11.70;99.90;;;;;;4794751;29;20039;-59
2023/10/22 04:57:37;;;;;;;3.20;1.50;;;11.40;99.90;;;;;;4793556;29;20043;-59
2023/10/22 05:00:08;;;;;;;5.18;1.80;;;11.60;99.90;;;;;;4795187;29;20073;-60
2023/10/22 05:02:34;;;;;;;4.33;1.57;;;11.70;99.90;;;;;;4795001;29;20409;-59
2023/10/22 05:05:00;;;;;;;3.58;1.50;;;11.50;99.90;;;;;;4794374;29;20790;-59
2023/10/22 05:07:26;;;;;;;4.70;1.88;;;11.60;99.90;;;;;;4794784;29;20055;-59
2023/10/22 05:09:51;;;;;;;5.00;2.15;;;11.50;99.90;;;;;;4794193;29;20043;-58
2023/10/22 05:12:17;;;;;;;5.53;2.05;;;11.70;99.90;;;;;;4794794;29;20055;-58
2023/10/22 05:14:43;;;;;;;5.50;2.55;;;11.50;99.90;;;;;;4794527;29;20068;-59
2023/10/22 05:17:08;;;;;;;5.75;2.75;;;11.50;99.90;;;;;;4794739;29;20051;-58
2023/10/22 05:19:35;;;;;;;6.65;3.50;;;11.80;99.90;;;;;;4795012;29;20055;-58
2023/10/22 05:22:01;;;;;;;6.07;3.50;;;11.70;99.90;;;;;;4794736;29;20044;-57
2023/10/22 05:24:27;;;;;;;7.85;3.53;;;11.60;99.90;;;;;;4794223;29;20055;-58
2023/10/22 05:26:53;;;;;;;8.10;4.30;;;11.80;99.90;;;;;;4794152;29;20083;-58
2023/10/22 05:29:19;;;;;;;8.50;5.03;;;11.90;99.90;;;;;;4793372;30;20126;-58
2023/10/22 05:31:44;;;;;;;9.10;5.45;;;11.80;99.90;;;;;;4794275;29;20082;-58
2023/10/22 05:34:10;;;;;;;7.75;5.18;;;11.90;99.90;;;;;;4793321;30;20051;-58
2023/10/22 05:36:36;;;;;;;9.55;5.78;;;11.80;99.90;;;;;;4794247;29;20107;-58
2023/10/22 05:39:02;;;;;;;9.02;5.93;;;11.70;99.90;;;;;;4793983;29;20059;-57
2023/10/22 05:41:28;;;;;;;8.85;6.00;;;12.00;99.90;;;;;;4794209;29;20052;-58
2023/10/22 05:43:59;;;;;;;10.88;6.07;;;12.00;99.90;;;;;;4793976;29;20047;-58
2023/10/22 05:46:25;;;;;;;11.40;6.97;;;11.90;99.90;;;;;;4794100;29;20054;-58
2023/10/22 05:48:51;;;;;;;11.30;6.90;;;11.80;99.90;;;;;;4793917;29;20095;-58
2023/10/22 05:51:17;;;;;;;9.13;6.13;;;12.00;99.90;;;;;;4794282;29;20040;-57
2023/10/22 05:53:44;;;;;;;12.30;6.75;;;11.80;99.90;;;;;;4792702;29;20126;-58
2023/10/22 05:56:10;;;;;;;10.48;6.72;;;11.80;99.90;;;;;;4793957;29;20100;-58
2023/10/22 05:58:36;;;;;;;10.35;6.40;;;11.80;99.90;;;;;;4794152;29;20051;-58
2023/10/22 06:01:02;;;;;;;9.75;6.47;;;11.90;99.90;;;;;;4793709;29;20047;-58
2023/10/22 06:03:28;;;;;;;9.95;6.50;;;12.10;99.90;;;;;;4794139;29;20104;-58
2023/10/22 06:05:54;;;;;;;9.82;5.88;;;12.10;99.90;;;;;;4793375;29;20070;-58
2023/10/22 06:08:20;;;;;;;7.57;4.53;;;12.10;99.90;;;;;;4794205;29;20043;-59
2023/10/22 06:10:46;;;;;;;5.88;3.30;;;12.20;99.90;;;;;;4793895;29;20090;-60
2023/10/22 06:13:12;;;;;;;5.10;2.40;;;12.20;99.90;;;;;;4791769;29;20051;-60
2023/10/22 06:15:43;;;;;;;5.07;2.05;;;11.80;99.90;;;;;;4789016;30;20067;-62
2023/10/22 06:18:09;;;;;;;4.10;1.60;;;11.80;99.90;;;;;;4789902;29;20566;-63
2023/10/22 06:20:36;;;;;;;4.70;1.45;;;11.90;99.90;;;;;;4789990;29;20051;-63
2023/10/22 06:23:03;;;;;;;5.72;1.50;;;11.70;99.90;;;;;;4789606;29;20080;-65
2023/10/22 06:25:31;;;;;;;7.95;2.00;;;11.30;99.90;;;;;;4789221;29;20521;-65
2023/10/22 06:27:58;;;;;;;4.88;1.42;;;11.40;99.90;;;;;;4790000;29;20511;-63
2023/10/22 06:30:25;;;;;;;4.85;1.50;;;11.00;99.90;;;;;;4789921;29;20150;-63
2023/10/22 06:32:58;;;;;;;5.43;1.60;;;11.00;99.90;;;;;;4790043;29;20105;-62
2023/10/22 06:35:27;;;;;;;7.40;1.90;;;11.10;99.90;;;;;;4789740;29;20055;-61
2023/10/22 06:37:53;;;;;;;8.02;2.22;;;11.10;99.90;;;;;;4789277;29;20070;-61
2023/10/22 06:40:20;;;;;;;11.50;2.65;;;11.50;99.90;;;;;;4789955;29;20464;-63
2023/10/22 06:42:48;;;;;;;9.18;2.60;;;11.20;99.90;;;;;;4790108;29;20071;-62
2023/10/22 06:45:14;;;;;;;10.45;2.80;;;11.10;99.90;;;;;;4789395;29;20079;-62
2023/10/22 06:47:40;;;;;;;7.05;2.20;;;11.10;99.90;;;;;;4788805;30;20048;-61
2023/10/22 06:50:13;;;;;;;5.93;1.95;;;11.20;99.90;;;;;;4788514;29;20524;-61
2023/10/22 06:52:41;;;;;;;6.85;1.52;;;10.90;99.90;;;;;;4787712;29;20054;-60
2023/10/22 06:55:07;;;;;;;5.30;1.55;;;11.20;99.90;;;;;;4788949;29;20070;-59
2023/10/22 06:57:33;;;;;;;4.43;1.60;;;11.00;99.90;;;;;;4788972;29;20058;-58
2023/10/22 06:59:59;;;;;;;7.18;1.52;;;11.10;99.90;;;;;;4787212;30;20055;-58
2023/10/22 07:02:25;;;;;;;7.50;1.52;;;11.10;99.90;;;;;;4787387;30;20035;-59
2023/10/22 07:04:55;;;;;;;5.75;1.67;;;11.10;99.90;;;;;;4789645;30;20476;-57
2023/10/22 07:07:22;;;;;;;5.00;1.75;;;10.90;99.90;;;;;;4788273;30;20051;-58
2023/10/22 07:09:48;;;;;;;6.07;1.67;;;10.90;99.90;;;;;;4789449;30;20126;-58
2023/10/22 07:12:15;;;;;;;8.45;2.20;;;11.10;99.90;;;;;;4789784;30;20098;-60
2023/10/22 07:14:41;;;;;;;8.98;2.35;;;11.20;99.90;;;;;;4788795;29;20066;-60
2023/10/22 07:17:07;;;;;;;6.65;2.08;;;11.10;99.90;;;;;;4773445;30;20138;-59
2023/10/22 07:19:33;;;;;;;6.40;2.20;;;11.30;99.90;;;;;;4799588;29;20050;-59
2023/10/22 07:21:59;;;;;;;5.43;1.90;;;11.20;99.90;;;;;;4807243;29;20051;-59
2023/10/22 07:24:25;;;;;;;7.28;2.33;;;11.10;99.90;;;;;;4806242;29;20058;-58
2023/10/22 07:26:51;;;;;;;6.75;2.40;;;11.30;99.90;;;;;;4806772;29;20055;-59
2023/10/22 07:29:16;;;;;;;6.75;2.20;;;11.10;99.90;;;;;;4807696;29;20046;-59
2023/10/22 07:31:43;;;;;;;11.05;2.40;;;11.20;99.90;;;;;;4807064;29;20298;-60
2023/10/22 07:34:09;;;;;;;10.45;2.67;;;11.30;99.90;;;;;;4793862;29;20062;-60
2023/10/22 07:36:35;;;;;;;8.02;2.55;;;11.30;99.90;;;;;;4789190;29;20170;-61
2023/10/22 07:39:01;;;;;;;9.25;2.70;;;11.40;99.90;;;;;;4789392;29;20098;-60
2023/10/22 07:41:27;;;;;;;9.00;2.60;;;11.40;99.90;;;;;;4789704;29;20136;-61
2023/10/22 07:43:53;;;;;;;9.32;2.95;;;11.40;99.90;;;;;;4788978;30;20059;-60
2023/10/22 07:46:19;;;;;;;12.43;3.30;;;11.40;99.90;;;;;;4789519;29;20059;-59
2023/10/22 07:48:45;;;;;;;7.65;3.03;;;11.10;99.90;;;;;;4788525;29;20486;-59
2023/10/22 07:51:18;;;;;;;9.35;3.40;;;11.30;99.90;;;;;;4789518;29;20524;-59
2023/10/22 07:53:46;;;;;;;12.07;4.60;;;11.30;99.90;;;;;;4789138;29;20781;-59
2023/10/22 07:56:12;;;;;;;10.15;4.05;;;11.20;99.90;;;;;;4787480;30;20492;-59
2023/10/22 07:58:39;;;;;;;8.38;3.63;;;11.40;99.90;;;;;;4789104;29;20059;-59
2023/10/22 08:01:06;;;;;;;8.25;4.07;;;11.30;99.90;;;;;;4788502;29;20051;-59
2023/10/22 08:03:32;;;;;;;10.95;3.50;;;11.40;99.90;;;;;;4789276;29;20116;-59
2023/10/22 08:06:00;;;;;;;8.43;3.25;;;11.40;99.90;;;;;;4789606;29;20058;-59
2023/10/22 08:08:26;;;;;;;11.52;3.60;;;11.40;99.90;;;;;;4804006;29;20522;-59
2023/10/22 08:10:57;;;;;;;9.95;3.72;;;11.40;99.90;;;;;;4810255;29;20047;-58
2023/10/22 08:13:23;;;;;;;7.57;3.17;;;11.40;99.90;;;;;;4809804;29;20125;-59
2023/10/22 08:15:49;;;;;;;10.90;3.58;;;11.30;99.90;;;;;;4810260;29;20085;-59
2023/10/22 08:18:15;;;;;;;10.98;3.63;;;11.30;99.90;;;;;;4810207;29;20046;-59
2023/10/22 08:20:41;;;;;;;7.13;3.22;;;11.40;99.90;;;;;;4810379;29;20084;-59
2023/10/22 08:23:07;;;;;;;9.75;3.05;;;11.40;99.90;;;;;;4793277;29;20500;-59
2023/10/22 08:25:33;;;;;;;8.23;3.00;;;11.40;99.90;;;;;;4809443;29;20074;-59
2023/10/22 08:27:59;;;;;;;8.50;2.65;;;11.30;99.90;;;;;;4810052;29;20062;-59
2023/10/22 08:30:24;;;;;;;7.55;2.80;;;11.40;99.90;;;;;;4810073;29;20461;-59
2023/10/22 08:32:51;;;;;;;8.82;3.25;;;11.50;99.90;;;;;;4806171;29;20043;-60
2023/10/22 08:35:16;;;;;;;10.52;2.80;;;11.60;99.90;;;;;;4791857;29;20051;-58
2023/10/22 08:37:42;;;;;;;9.43;2.55;;;11.60;99.90;;;;;;4791442;29;20112;-59
2023/10/22 08:40:08;;;;;;;9.75;2.88;;;11.60;99.90;;;;;;4791488;29;20188;-58
2023/10/22 08:42:35;;;;;;;6.88;2.25;;;11.60;99.90;;;;;;4792227;29;20086;-58
2023/10/22 08:45:03;;;;;;;7.15;2.25;;;11.70;99.90;;;;;;4791917;29;20704;-58
2023/10/22 08:47:29;;;;;;;6.88;2.30;;;11.80;99.90;;;;;;4791551;29;20101;-58
2023/10/22 08:49:56;;;;;;;7.00;2.78;;;11.90;99.90;;;;;;4791281;29;20051;-58
2023/10/22 08:52:21;;;;;;;6.28;2.08;;;11.80;99.90;;;;;;4791584;29;20051;-58
2023/10/22 08:54:47;;;;;;;9.02;2.50;;;11.80;99.90;;;;;;4791096;29;20081;-58
2023/10/22 08:57:14;;;;;;;8.18;2.00;;;11.90;99.90;;;;;;4791495;29;20054;-58
2023/10/22 08:59:39;;;;;;;8.80;1.92;;;11.80;99.90;;;;;;4792030;29;20094;-58
2023/10/22 09:02:11;;;;;;;6.10;1.73;;;11.90;99.90;;;;;;4791026;29;20544;-57
2023/10/22 09:04:37;;;;;;;11.77;2.60;;;11.90;99.90;;;;;;4793062;29;20059;-58
2023/10/22 09:07:03;;;;;;;8.15;2.22;;;12.00;99.90;;;;;;4789951;29;20047;-58
2023/10/22 09:09:39;;;;;;;8.85;1.95;;;12.00;99.90;;;;;;4790024;29;20555;-58
2023/10/22 09:12:08;;;;;;;6.88;1.83;;;12.00;99.90;;;;;;4789085;30;20070;-55
2023/10/22 09:14:35;;;;;;;5.28;1.50;;;12.00;99.90;;;;;;4791329;29;20063;-58
2023/10/22 09:17:18;;;;;;;5.43;1.50;;;12.10;99.90;;;;;;4793959;29;20106;-58
2023/10/22 09:19:49;;;;;;;11.32;1.38;;;12.10;99.90;;;;;;4794359;30;20066;-58
2023/10/22 09:22:22;;;;;;;6.03;1.23;;;12.10;99.90;;;;;;4794444;29;20126;-58
2023/10/22 09:24:51;;;;;;;8.25;1.48;;;12.10;99.90;;;;;;4794244;29;20055;-58
2023/10/22 09:27:25;;;;;;;6.68;1.20;;;12.20;99.90;;;;;;4791651;29;20047;-58
2023/10/22 09:29:52;;;;;;;6.32;1.27;;;12.30;99.90;;;;;;4792937;30;20061;-58
2023/10/22 09:32:19;;;;;;;8.27;1.85;;;12.20;99.90;;;;;;4793169;30;20052;-58
2023/10/22 09:34:45;;;;;;;7.13;1.20;;;12.30;99.90;;;;;;4789144;29;20058;-58
2023/10/22 09:37:11;;;;;;;5.28;1.08;;;12.40;99.90;;;;;;4789294;30;20059;-58
2023/10/22 09:39:43;;;;;;;4.15;0.95;;;12.40;99.90;;;;;;4789746;29;20058;-58
2023/10/22 09:42:11;;;;;;;4.63;1.00;;;12.40;99.90;;;;;;4794009;29;20059;-58
2023/10/22 09:44:39;;;;;;;6.18;0.98;;;12.60;99.90;;;;;;4788657;29;20049;-58
2023/10/22 09:47:06;;;;;;;4.35;0.90;;;12.70;99.90;;;;;;4790591;29;20047;-57
2023/10/22 09:49:38;;;;;;;3.47;0.90;;;12.80;99.90;;;;;;4790449;29;20062;-58
2023/10/22 09:52:09;;;;;;;1.88;0.70;;;12.80;92.40;;;;;;4789757;29;20051;-58
2023/10/22 09:54:41;;;;;;;7.05;1.00;;;12.90;87.40;;;;;;4789822;29;20059;-58
2023/10/22 09:57:12;;;;;;;4.80;0.90;;;12.90;91.10;;;;;;4788609;29;20055;-57
2023/10/22 09:59:39;;;;;;;5.25;1.30;;;12.90;73.70;;;;;;4780804;30;20063;-58
2023/10/22 10:02:06;;;;;;;4.60;0.80;;;12.90;80.00;;;;;;4790333;29;20077;-58
2023/10/22 10:04:35;;;;;;;5.93;1.00;;;13.00;68.00;;;;;;4790057;29;20056;-58
2023/10/22 10:07:02;;;;;;;7.45;0.90;;;13.00;64.80;;;;;;4772382;30;20080;-57
2023/10/22 10:09:29;;;;;;;3.83;0.70;;;13.00;51.60;;;;;;4789371;30;20509;-58
2023/10/22 10:11:56;;;;;;;3.10;0.70;;;13.10;57.80;;;;;;4792687;29;20178;-59
2023/10/22 10:14:49;;;;;;;4.30;0.90;;;13.10;39.20;;;;;;4793441;29;20103;-58
2023/10/22 10:17:17;;;;;;;6.22;1.60;;;13.20;31.50;;;;;;4792216;29;20111;-59
2023/10/22 10:19:43;;;;;;;5.95;1.08;;;13.20;31.60;;;;;;4792991;29;20074;-58
2023/10/22 10:22:09;;;;;;;5.07;1.13;;;13.40;28.90;;;;;;4792944;29;20067;-59
2023/10/22 10:24:35;;;;;;;4.40;0.80;;;13.50;25.00;;;;;;4792503;30;20062;-59
2023/10/22 10:27:00;;;;;;;4.22;1.00;;;13.50;15.70;;;;;;4792917;29;20054;-59
2023/10/22 10:29:32;;;;;;;2.90;0.95;;;13.60;13.90;;;;;;4792407;29;20055;-59
2023/10/22 10:32:12;;;;;;;5.73;1.00;;;13.80;16.30;;;;;;4793522;30;20240;-59
2023/10/22 10:34:40;;;;;;;3.78;1.00;;;13.60;10.60;;;;;;4793246;30;20079;-59
2023/10/22 10:37:21;;;;;;;5.68;1.70;;;13.60;8.00;;;;;;4793130;29;20059;-59
2023/10/22 10:39:48;;;;;;;4.70;1.00;;;13.60;5.90;;;;;;4792741;29;20047;-58
2023/10/22 10:42:36;;;;;;;4.07;0.90;;;13.70;3.20;;;;;;4793834;29;20043;-59
2023/10/22 10:45:04;;;;;;;2.88;0.85;;;13.60;1.00;;;;;;4792874;29;20062;-58
2023/10/22 10:47:32;;;;;;;6.60;1.00;;;13.80;10.20;;;;;;4793144;30;20074;-59
2023/10/22 10:50:05;;;;;;;6.20;1.50;;;13.60;1.90;;;;;;4792879;29;20055;-59
2023/10/22 10:52:31;;;;;;;2.38;0.80;;;13.70;1.00;;;;;;4792962;29;20485;-59
2023/10/22 10:55:10;;;;;;;3.47;0.85;;;13.80;1.00;;;;;;4791995;29;20109;-59
2023/10/22 10:57:41;;;;;;;4.40;0.80;;;13.90;1.10;;;;;;4793004;29;20059;-59
2023/10/22 11:00:16;;;;;;;2.85;0.82;;;14.00;1.00;;;;;;4792905;29;20050;-57
2023/10/22 11:02:43;;;;;;;4.45;0.90;;;13.80;1.00;;;;;;4792229;30;20481;-58
2023/10/22 11:05:13;;;;;;;3.97;0.80;;;13.90;1.00;;;;;;4792620;29;20058;-59
2023/10/22 11:07:42;;;;;;;2.65;0.75;;;13.80;1.00;;;;;;4793267;29;20107;-59
2023/10/22 11:10:16;;;;;;;4.00;1.05;;;13.80;1.00;;;;;;4792365;29;20055;-59
2023/10/22 11:12:43;;;;;;;3.15;0.75;;;13.60;1.00;;;;;;4791632;30;20066;-59
2023/10/22 11:15:10;;;;;;;4.13;0.90;;;13.40;1.00;;;;;;4792690;30;20081;-59
2023/10/22 11:17:38;;;;;;;2.95;0.70;;;13.40;1.00;;;;;;4792675;29;20066;-59
2023/10/22 11:20:05;;;;;;;4.00;0.80;;;13.40;1.00;;;;;;4792875;29;20104;-59
2023/10/22 11:22:32;;;;;;;3.70;0.95;;;13.50;1.00;;;;;;4792781;29;20378;-58
2023/10/22 11:25:03;;;;;;;4.38;0.88;;;13.70;1.00;;;;;;4792041;29;20513;-58
2023/10/22 11:27:30;;;;;;;2.95;0.80;;;13.90;1.00;;;;;;4792565;29;20830;-59
2023/10/22 11:29:56;;;;;;;4.68;0.80;;;14.20;1.00;;;;;;4792997;29;20052;-59
2023/10/22 11:32:22;;;;;;;3.72;1.02;;;14.10;1.00;;;;;;4793126;29;20106;-59
2023/10/22 11:34:58;;;;;;;4.13;1.00;;;14.20;1.00;;;;;;4792550;29;20111;-58
2023/10/22 11:37:28;;;;;;;2.97;0.70;;;14.20;1.00;;;;;;4792347;30;20112;-58
2023/10/22 11:39:54;;;;;;;5.40;1.00;;;14.40;1.00;;;;;;4793103;29;20083;-58
2023/10/22 11:42:20;;;;;;;5.00;1.55;;;14.50;1.00;;;;;;4796054;30;20050;-58
2023/10/22 11:44:46;;;;;;;4.13;0.70;;;14.40;1.00;;;;;;4796026;30;20116;-58
2023/10/22 11:47:33;;;;;;;5.00;0.93;;;14.40;1.00;;;;;;4794830;30;20052;-58
2023/10/22 11:49:59;;;;;;;4.07;0.80;;;14.30;1.00;;;;;;4796230;30;20051;-57
2023/10/22 11:52:34;;;;;;;2.38;0.80;;;14.20;1.00;;;;;;4795934;29;20047;-58
2023/10/22 11:55:07;;;;;;;4.32;0.80;;;14.30;1.00;;;;;;4796154;30;20055;-58
2023/10/22 11:57:37;;;;;;;1.95;0.52;;;14.20;1.00;;;;;;4796000;29;20085;-58
2023/10/22 12:00:04;;;;;;;2.83;0.73;;;14.00;1.00;;;;;;4796142;29;20043;-58
2023/10/22 12:02:30;;;;;;;1.80;0.60;;;14.10;1.00;;;;;;4796152;29;20107;-58
2023/10/22 12:04:56;;;;;;;3.13;0.75;;;14.00;1.00;;;;;;4796180;29;20050;-58
2023/10/22 12:07:22;;;;;;;1.35;0.50;;;14.00;1.00;;;;;;4795960;29;20059;-59
2023/10/22 12:09:48;;;;;;;2.10;0.70;;;13.80;1.00;;;;;;4795859;30;20069;-58
2023/10/22 12:12:13;;;;;;;2.55;0.60;;;13.90;1.00;;;;;;4796253;29;20058;-58
2023/10/22 12:14:39;;;;;;;3.63;0.60;;;13.80;1.00;;;;;;4794137;29;20055;-58
2023/10/22 12:17:08;;;;;;;1.50;0.40;;;13.80;1.00;;;;;;4795137;30;20051;-58
2023/10/22 12:19:34;;;;;;;1.63;0.50;;;13.80;1.00;;;;;;4794189;29;20039;-58
2023/10/22 12:22:00;;;;;;;3.38;0.60;;;13.90;1.00;;;;;;4794284;29;20058;-58
2023/10/22 12:24:26;;;;;;;1.90;0.50;;;13.80;1.00;;;;;;4795278;29;20047;-59
2023/10/22 12:26:51;;;;;;;1.88;0.80;;;13.80;1.00;;;;;;4794219;29;20130;-58
2023/10/22 12:29:17;;;;;;;3.05;0.93;;;13.80;1.00;;;;;;4797615;29;20072;-58
2023/10/22 12:31:43;;;;;;;3.33;0.68;;;13.90;1.00;;;;;;4795066;30;20085;-59
2023/10/22 12:34:09;;;;;;;2.53;0.52;;;13.90;1.00;;;;;;4794896;29;20066;-58
2023/10/22 12:36:34;;;;;;;1.77;0.40;;;13.90;1.00;;;;;;4795259;29;20047;-58
2023/10/22 12:39:00;;;;;;;2.65;0.60;;;13.80;1.00;;;;;;4794488;29;20063;-58
2023/10/22 12:41:26;;;;;;;7.40;0.55;;;13.70;1.00;;;;;;4795015;29;20134;-58
2023/10/22 12:43:52;;;;;;;4.18;0.70;;;13.70;1.00;;;;;;4794769;29;20054;-59
2023/10/22 12:46:18;;;;;;;3.13;0.70;;;13.70;1.00;;;;;;4794853;29;20055;-58
2023/10/22 12:48:44;;;;;;;2.42;0.45;;;13.60;1.00;;;;;;4795041;29;20058;-58